createdAt,value
2022-09-06T00:02:43.506Z,101035.06
2022-09-06T00:07:45.039Z,101046.69
2022-09-06T00:12:47.678Z,101064.06
2022-09-06T00:17:49.169Z,101069.69
2022-09-06T00:22:50.574Z,101070.69
2022-09-06T00:28:00.673Z,101065.53
2022-09-06T00:33:02.098Z,101057.22
2022-09-06T00:38:03.531Z,101053.72
2022-09-06T00:43:05.035Z,101075.47
2022-09-06T00:48:06.782Z,101074.00
2022-09-06T00:53:08.262Z,101069.16
2022-09-06T00:58:10.436Z,101105.69
2022-09-06T01:03:12.749Z,101101.31
2022-09-06T01:08:35.070Z,101093.38
2022-09-06T01:13:49.378Z,101095.19
2022-09-06T01:19:06.033Z,101107.38
2022-09-06T01:24:29.076Z,101138.16
2022-09-06T01:29:34.221Z,101145.09
2022-09-06T01:34:42.383Z,101148.53
2022-09-06T01:39:43.810Z,101148.59
2022-09-06T01:45:14.687Z,101146.84
2022-09-06T01:50:35.699Z,101129.41
2022-09-06T01:55:49.414Z,101135.25
2022-09-06T02:01:01.405Z,101134.31
2022-09-06T02:06:08.846Z,101157.09
2022-09-06T02:11:13.030Z,101152.56
2022-09-06T02:16:21.041Z,101135.84
2022-09-06T02:21:28.091Z,101120.31
2022-09-06T02:26:34.342Z,101102.44
2022-09-06T02:31:42.582Z,101098.53
2022-09-06T02:36:44.776Z,101098.31
2022-09-06T02:41:47.855Z,101100.22
2022-09-06T02:46:50.341Z,101076.81
2022-09-06T02:51:53.206Z,101084.63
2022-09-06T02:56:54.599Z,101071.63
2022-09-06T03:01:56.092Z,101079.19
2022-09-06T03:06:57.591Z,101069.66
2022-09-06T03:11:59.090Z,101044.84
2022-09-06T03:17:00.554Z,101045.16
2022-09-06T03:22:02.060Z,101027.63
2022-09-06T03:27:03.602Z,100985.16
2022-09-06T03:32:05.293Z,100987.59
2022-09-06T03:37:07.025Z,101011.06
2022-09-06T03:42:08.531Z,100994.16
2022-09-06T03:47:09.973Z,101037.19
2022-09-06T03:52:11.619Z,101056.03
2022-09-06T03:57:13.006Z,101053.59
2022-09-06T04:02:14.529Z,101051.53
2022-09-06T04:07:16.080Z,101031.16
2022-09-06T04:12:17.587Z,101049.19
2022-09-06T04:17:19.105Z,101038.75
2022-09-06T04:22:20.531Z,101019.50
2022-09-06T04:27:21.982Z,101032.38
2022-09-06T04:32:23.829Z,101032.72
2022-09-06T04:37:25.246Z,101049.78
2022-09-06T04:42:26.723Z,101049.94
2022-09-06T04:47:28.307Z,101050.13
2022-09-06T04:52:30.416Z,101054.84
2022-09-06T04:57:31.927Z,101054.84
2022-09-06T05:02:33.465Z,101068.50
2022-09-06T05:07:35.003Z,101058.63
2022-09-06T05:12:38.047Z,101064.72
2022-09-06T05:17:42.410Z,101075.09
2022-09-06T05:22:43.866Z,101083.91
2022-09-06T05:27:45.272Z,101087.25
2022-09-06T05:32:46.695Z,101085.75
2022-09-06T05:37:48.206Z,101082.97
2022-09-06T05:42:49.627Z,101087.16
2022-09-06T05:47:51.045Z,101081.91
2022-09-06T05:52:53.959Z,101098.56
2022-09-06T05:57:55.385Z,101086.13
2022-09-06T06:02:56.789Z,101089.72
2022-09-06T06:07:59.515Z,101045.69
2022-09-06T06:13:00.949Z,101095.69
2022-09-06T06:18:02.455Z,101086.25
2022-09-06T06:23:03.910Z,101086.78
2022-09-06T06:28:05.354Z,101082.13
2022-09-06T06:33:06.781Z,101074.16
2022-09-06T06:38:08.216Z,101064.50
2022-09-06T06:43:11.360Z,101064.34
2022-09-06T06:48:12.812Z,101073.16
2022-09-06T06:53:14.230Z,101068.69
2022-09-06T06:58:16.952Z,101053.97
2022-09-06T07:03:18.399Z,101054.72
2022-09-06T07:08:19.827Z,101026.81
2022-09-06T07:13:21.382Z,101067.56
2022-09-06T07:18:22.853Z,101066.63
2022-09-06T07:28:47.907Z,101076.03
2022-09-06T07:33:55.161Z,101065.47
2022-09-06T07:38:57.198Z,101075.13
2022-09-06T07:43:58.608Z,101069.09
2022-09-06T07:49:00.149Z,101062.53
2022-09-06T07:54:26.251Z,101072.03
2022-09-06T07:59:23.521Z,101065.09
2022-09-06T08:04:25.029Z,101066.25
2022-09-06T08:09:26.465Z,101073.91
2022-09-06T08:14:27.859Z,101075.91
2022-09-06T08:19:29.310Z,101068.28
2022-09-06T08:24:31.159Z,101056.88
2022-09-06T08:29:32.588Z,101070.00
2022-09-06T08:34:34.088Z,101067.88
2022-09-06T08:39:35.561Z,101066.34
2022-09-06T08:50:06.433Z,101063.88
2022-09-06T08:55:32.729Z,101068.94
2022-09-06T09:00:35.647Z,101063.78
2022-09-06T09:05:39.621Z,101061.22
2022-09-06T09:11:05.690Z,101048.53
2022-09-06T09:16:07.654Z,101058.16
2022-09-06T09:21:12.808Z,101048.94
2022-09-06T09:26:15.478Z,101049.34
2022-09-06T09:31:33.288Z,101043.28
2022-09-06T09:36:35.625Z,101029.09
2022-09-06T09:41:40.829Z,101008.88
2022-09-06T09:46:42.267Z,101021.47
2022-09-06T09:52:04.045Z,101025.66
2022-09-06T09:57:11.990Z,100998.75
2022-09-06T10:02:28.215Z,101007.25
2022-09-06T10:07:32.556Z,101011.09
2022-09-06T10:12:38.740Z,101015.09
2022-09-06T10:17:52.053Z,101009.63
2022-09-06T10:23:09.251Z,100988.44
2022-09-06T10:28:27.720Z,101003.00
2022-09-06T10:33:47.780Z,101008.31
2022-09-06T10:39:09.361Z,101007.50
2022-09-06T10:44:38.216Z,100999.34
2022-09-06T10:49:46.259Z,100988.56
2022-09-06T10:54:48.453Z,100990.84
2022-09-06T11:00:12.848Z,100990.84
2022-09-06T11:05:44.670Z,100981.09
2022-09-06T11:10:51.150Z,100992.19
2022-09-06T11:16:33.609Z,101002.78
2022-09-06T11:21:46.575Z,100998.13
2022-09-06T11:27:17.572Z,100992.44
2022-09-06T11:32:33.186Z,100998.13
2022-09-06T11:37:39.520Z,100977.50
2022-09-06T11:42:43.922Z,101000.63
2022-09-06T11:47:50.385Z,101003.72
2022-09-06T11:53:07.263Z,100995.09
2022-09-06T11:58:31.311Z,100999.91
2022-09-06T12:04:07.443Z,100988.69
2022-09-06T12:09:37.616Z,100973.06
2022-09-06T12:14:41.609Z,100978.66
2022-09-06T12:20:05.944Z,100970.72
2022-09-06T12:25:42.816Z,100970.13
2022-09-06T12:30:47.896Z,100963.19
2022-09-06T12:35:57.137Z,100977.47
2022-09-06T12:41:01.077Z,100974.22
2022-09-06T12:46:07.683Z,100963.88
2022-09-06T12:51:20.687Z,100967.72
2022-09-06T12:56:24.386Z,100961.66
2022-09-06T13:01:32.798Z,100951.16
2022-09-06T13:06:38.591Z,100942.75
2022-09-06T13:11:45.058Z,100935.09
2022-09-06T13:16:49.549Z,100938.63
2022-09-06T13:21:51.867Z,100932.56
2022-09-06T13:26:53.932Z,100920.00
2022-09-06T13:31:57.064Z,100925.44
2022-09-06T13:37:05.227Z,100918.88
2022-09-06T13:42:07.661Z,100927.97
2022-09-06T13:47:09.045Z,100927.28
2022-09-06T13:52:10.484Z,100910.44
2022-09-06T13:57:11.906Z,100913.22
2022-09-06T14:02:15.961Z,100895.66
2022-09-06T14:07:17.560Z,100895.88
2022-09-06T14:12:19.029Z,100907.66
2022-09-06T14:17:21.218Z,100900.03
2022-09-06T14:22:22.737Z,100899.06
2022-09-06T14:27:24.617Z,100892.91
2022-09-06T14:32:26.159Z,100894.50
2022-09-06T14:37:27.877Z,100875.38
2022-09-06T14:42:29.814Z,100887.72
2022-09-06T14:47:31.836Z,100880.56
2022-09-06T14:52:33.399Z,100873.03
2022-09-06T14:57:34.875Z,100861.84
2022-09-06T15:02:37.696Z,100861.13
2022-09-06T15:07:39.150Z,100868.47
2022-09-06T15:12:40.612Z,100867.16
2022-09-06T15:17:42.175Z,100852.19
2022-09-06T15:22:43.890Z,100848.91
2022-09-06T15:27:45.346Z,100844.97
2022-09-06T15:32:46.816Z,100843.69
2022-09-06T15:37:48.576Z,100831.66
2022-09-06T15:42:50.103Z,100788.72
2022-09-06T15:47:51.582Z,100816.91
2022-09-06T15:52:53.021Z,100815.38
2022-09-06T15:57:54.473Z,100807.13
2022-09-06T16:02:58.044Z,100803.09
2022-09-06T16:07:59.519Z,100797.34
2022-09-06T16:13:00.955Z,100803.69
2022-09-06T16:18:05.113Z,100806.03
2022-09-06T16:23:06.564Z,100792.78
2022-09-06T16:28:07.988Z,100793.63
2022-09-06T16:33:10.486Z,100803.00
2022-09-06T16:38:11.984Z,100798.16
2022-09-06T16:43:13.525Z,100790.81
2022-09-06T16:48:15.083Z,100799.38
2022-09-06T16:53:21.470Z,100802.00
2022-09-06T16:58:23.561Z,100788.63
2022-09-06T17:03:25.216Z,100787.34
2022-09-06T17:08:27.102Z,100801.94
2022-09-06T17:13:29.743Z,100807.88
2022-09-06T17:18:32.928Z,100802.44
2022-09-06T17:23:35.833Z,100800.53
2022-09-06T17:28:39.475Z,100790.34
2022-09-06T17:33:41.334Z,100803.09
2022-09-06T17:38:44.552Z,100795.97
2022-09-06T17:43:47.320Z,100802.16
2022-09-06T17:48:48.923Z,100804.38
2022-09-06T17:53:50.461Z,100799.03
2022-09-06T17:59:00.912Z,100800.50
2022-09-06T18:04:04.271Z,100797.22
2022-09-06T18:09:09.813Z,100795.75
2022-09-06T18:14:16.145Z,100797.19
2022-09-06T18:19:18.732Z,100789.34
2022-09-06T18:24:20.334Z,100789.72
2022-09-06T18:29:22.126Z,100761.09
2022-09-06T18:34:23.586Z,100776.06
2022-09-06T18:39:25.434Z,100782.56
2022-09-06T18:44:32.610Z,100769.28
2022-09-06T18:49:34.992Z,100768.66
2022-09-06T18:54:36.601Z,100783.31
2022-09-06T18:59:38.229Z,100781.81
2022-09-06T19:04:39.793Z,100784.25
2022-09-06T19:09:41.508Z,100781.53
2022-09-06T19:14:43.118Z,100758.94
2022-09-06T19:19:44.704Z,100777.50
2022-09-06T19:24:46.349Z,100756.75
2022-09-06T19:29:48.044Z,100752.22
2022-09-06T19:34:49.613Z,100745.34
2022-09-06T19:39:51.272Z,100742.03
2022-09-06T19:44:52.938Z,100721.09
2022-09-06T19:49:54.474Z,100739.72
2022-09-06T19:54:55.993Z,100731.03
2022-09-06T19:59:57.505Z,100707.94
2022-09-06T20:04:59.210Z,100706.16
2022-09-06T20:10:00.764Z,100711.06
2022-09-06T20:15:02.525Z,100686.28
2022-09-06T20:20:07.856Z,100694.59
2022-09-06T20:25:09.633Z,100694.31
2022-09-06T20:30:11.811Z,100693.94
2022-09-06T20:35:13.398Z,100689.00
2022-09-06T20:40:15.019Z,100686.94
2022-09-06T20:45:17.764Z,100683.78
2022-09-06T20:50:19.241Z,100691.22
2022-09-06T20:55:20.695Z,100715.97
2022-09-06T21:00:22.230Z,100705.34
2022-09-06T21:05:23.862Z,100696.09
2022-09-06T21:10:25.419Z,100632.97
2022-09-06T21:15:26.921Z,100689.72
2022-09-06T21:20:29.616Z,100720.47
2022-09-06T21:25:31.205Z,100711.38
2022-09-06T21:30:32.730Z,100721.19
2022-09-06T21:35:34.589Z,100736.59
2022-09-06T21:40:36.313Z,100735.03
2022-09-06T21:45:38.147Z,100720.03
2022-09-06T21:50:39.661Z,100691.50
2022-09-06T21:55:41.745Z,100708.66
2022-09-06T22:00:46.014Z,100701.22
2022-09-06T22:05:47.618Z,100701.59
2022-09-06T22:10:49.947Z,100682.34
2022-09-06T22:15:51.456Z,100683.28
2022-09-06T22:21:00.286Z,100669.22
2022-09-06T22:26:05.107Z,100645.88
2022-09-06T22:31:07.888Z,100626.59
2022-09-06T22:36:10.249Z,100621.31
2022-09-06T22:41:12.072Z,100612.53
2022-09-06T22:46:13.697Z,100626.81
2022-09-06T22:51:15.236Z,100608.91
2022-09-06T22:56:16.894Z,100611.56
2022-09-06T23:01:18.500Z,100610.81
2022-09-06T23:06:20.322Z,100598.72
2022-09-06T23:11:21.806Z,100609.06
2022-09-06T23:16:23.569Z,100625.41
2022-09-06T23:21:26.332Z,100627.31
2022-09-06T23:26:30.482Z,100618.78
2022-09-06T23:31:32.633Z,100640.97
2022-09-06T23:36:34.269Z,100742.25
2022-09-06T23:41:35.831Z,100847.63
2022-09-06T23:46:37.411Z,100848.81
2022-09-06T23:51:38.996Z,100836.25
2022-09-06T23:56:40.457Z,100883.66
